createdAt,value
2019-04-25T00:02:25.816Z,12.91
2019-04-25T00:04:55.455Z,12.92
2019-04-25T00:07:24.856Z,12.91
2019-04-25T00:09:55.281Z,12.89
2019-04-25T00:12:24.993Z,12.90
2019-04-25T00:14:54.461Z,12.86
2019-04-25T00:17:25.561Z,12.86
2019-04-25T00:19:54.945Z,12.87
2019-04-25T00:22:25.957Z,12.87
2019-04-25T00:24:56.967Z,12.89
2019-04-25T00:27:27.359Z,12.93
2019-04-25T00:29:57.302Z,12.97
2019-04-25T00:32:26.672Z,13.01
2019-04-25T00:34:56.323Z,13.06
2019-04-25T00:37:25.669Z,13.07
2019-04-25T00:39:55.063Z,13.10
2019-04-25T00:42:24.597Z,13.14
2019-04-25T00:44:54.023Z,13.16
2019-04-25T00:47:23.643Z,13.16
2019-04-25T00:50:12.554Z,13.17
2019-04-25T00:52:43.874Z,13.16
2019-04-25T00:55:25.820Z,13.19
2019-04-25T00:57:47.034Z,13.19
2019-04-25T01:00:18.537Z,13.18
2019-04-25T01:02:50.031Z,13.19
2019-04-25T01:05:21.589Z,13.20
2019-04-25T01:07:52.435Z,13.20
2019-04-25T01:10:23.181Z,13.17
2019-04-25T01:12:53.214Z,13.14
2019-04-25T01:15:23.990Z,13.10
2019-04-25T01:17:53.500Z,13.05
2019-04-25T01:20:23.985Z,13.00
2019-04-25T01:22:54.322Z,12.95
2019-04-25T01:25:24.525Z,12.91
2019-04-25T01:27:54.789Z,12.89
2019-04-25T01:30:26.134Z,12.85
2019-04-25T01:32:56.714Z,12.78
2019-04-25T01:35:44.881Z,12.73
2019-04-25T01:38:21.594Z,12.61
2019-04-25T01:40:55.702Z,12.53
2019-04-25T01:43:26.716Z,12.51
2019-04-25T01:45:57.934Z,12.47
2019-04-25T01:48:27.418Z,12.46
2019-04-25T01:50:56.829Z,12.46
2019-04-25T01:53:26.224Z,12.46
2019-04-25T01:56:01.654Z,12.46
2019-04-25T01:58:26.693Z,12.49
2019-04-25T02:00:57.273Z,12.50
2019-04-25T02:03:27.276Z,12.51
2019-04-25T02:05:57.309Z,12.52
2019-04-25T02:08:26.877Z,12.53
2019-04-25T02:10:58.930Z,12.53
2019-04-25T02:13:28.383Z,12.52
2019-04-25T02:15:57.856Z,12.54
2019-04-25T02:18:27.540Z,12.53
2019-04-25T02:20:59.307Z,12.50
2019-04-25T02:23:29.605Z,12.48
2019-04-25T02:26:11.767Z,12.44
2019-04-25T02:28:30.579Z,12.39
2019-04-25T02:31:02.340Z,12.37
2019-04-25T02:33:31.323Z,12.32
2019-04-25T02:36:03.715Z,12.30
2019-04-25T02:38:34.034Z,12.26
2019-04-25T02:41:06.866Z,12.21
2019-04-25T02:43:35.058Z,12.16
2019-04-25T02:46:10.646Z,12.18
2019-04-25T02:48:59.553Z,12.18
2019-04-25T02:51:29.481Z,12.22
2019-04-25T02:53:59.663Z,12.28
2019-04-25T02:56:34.345Z,12.36
2019-04-25T02:59:00.381Z,12.41
2019-04-25T03:01:29.783Z,12.45
2019-04-25T03:03:59.454Z,12.52
2019-04-25T03:06:29.953Z,12.57
2019-04-25T03:09:00.316Z,12.62
2019-04-25T03:11:30.920Z,12.68
2019-04-25T03:14:02.022Z,12.75
2019-04-25T03:16:31.507Z,12.81
2019-04-25T03:19:13.990Z,12.90
2019-04-25T03:21:45.229Z,12.95
2019-04-25T03:24:16.864Z,13.03
2019-04-25T03:26:46.545Z,13.12
2019-04-25T03:29:16.018Z,13.20
2019-04-25T03:31:45.420Z,13.29
2019-04-25T03:34:20.240Z,13.37
2019-04-25T03:36:46.329Z,13.44
2019-04-25T03:39:16.506Z,13.48
2019-04-25T03:41:45.988Z,13.51
2019-04-25T03:44:15.862Z,13.52
2019-04-25T03:46:45.713Z,13.54
2019-04-25T03:49:15.203Z,13.58
2019-04-25T03:51:45.313Z,13.60
2019-04-25T03:54:15.462Z,13.63
2019-04-25T03:56:53.625Z,13.64
2019-04-25T03:59:16.428Z,13.66
2019-04-25T04:01:45.836Z,13.65
2019-04-25T04:04:16.288Z,13.66
2019-04-25T04:06:45.876Z,13.66
2019-04-25T04:09:15.851Z,13.69
2019-04-25T04:11:46.001Z,13.73
2019-04-25T04:14:15.816Z,13.75
2019-04-25T04:16:47.611Z,13.78
2019-04-25T04:19:16.980Z,13.82
2019-04-25T04:21:50.965Z,13.86
2019-04-25T04:24:25.526Z,13.92
2019-04-25T04:27:10.736Z,13.97
2019-04-25T04:29:40.347Z,14.01
2019-04-25T04:32:10.584Z,14.07
2019-04-25T04:34:40.024Z,14.14
2019-04-25T04:37:09.506Z,14.23
2019-04-25T04:39:38.847Z,14.31
2019-04-25T04:42:08.412Z,14.45
2019-04-25T04:44:38.263Z,14.61
2019-04-25T04:47:08.564Z,14.80
2019-04-25T04:49:38.313Z,15.01
2019-04-25T04:52:08.321Z,15.21
2019-04-25T04:54:38.482Z,15.45
2019-04-25T04:57:18.712Z,15.69
2019-04-25T04:59:38.977Z,15.96
2019-04-25T05:02:15.044Z,16.13
2019-04-25T05:04:45.451Z,16.22
2019-04-25T05:07:33.954Z,16.26
2019-04-25T05:10:03.588Z,16.28
2019-04-25T05:12:33.954Z,16.46
2019-04-25T05:15:05.003Z,16.72
2019-04-25T05:17:34.403Z,17.02
2019-04-25T05:20:05.488Z,17.29
2019-04-25T05:22:35.370Z,17.57
2019-04-25T05:25:06.621Z,17.83
2019-04-25T05:27:50.697Z,17.97
2019-04-25T05:30:10.664Z,18.02
2019-04-25T05:32:40.099Z,18.00
2019-04-25T05:35:09.923Z,18.01
2019-04-25T05:37:39.720Z,18.03
2019-04-25T05:40:09.754Z,18.09
2019-04-25T05:42:54.168Z,18.15
2019-04-25T05:45:25.792Z,18.18
2019-04-25T05:47:57.600Z,18.18
2019-04-25T05:50:27.130Z,18.14
2019-04-25T05:52:56.507Z,18.05
2019-04-25T05:55:26.579Z,17.95
2019-04-25T05:57:56.087Z,17.82
2019-04-25T06:00:27.069Z,17.70
2019-04-25T06:02:56.698Z,17.58
2019-04-25T06:05:28.760Z,17.47
2019-04-25T06:07:58.127Z,17.35
2019-04-25T06:10:34.843Z,17.27
2019-04-25T06:13:15.927Z,17.18
2019-04-25T06:15:46.987Z,17.14
2019-04-25T06:18:34.316Z,17.24
2019-04-25T06:21:03.880Z,17.53
2019-04-25T06:23:46.098Z,17.83
2019-04-25T06:26:26.715Z,18.02
2019-04-25T06:28:57.084Z,18.12
2019-04-25T06:31:21.389Z,18.16
2019-04-25T06:33:56.644Z,18.16
2019-04-25T06:36:27.050Z,18.14
2019-04-25T06:38:56.601Z,18.14
2019-04-25T06:41:27.088Z,18.14
2019-04-25T06:43:58.195Z,18.17
2019-04-25T06:46:49.744Z,18.18
2019-04-25T06:49:20.752Z,18.12
2019-04-25T06:51:51.203Z,18.07
2019-04-25T06:54:21.820Z,18.02
2019-04-25T06:56:53.406Z,17.99
2019-04-25T06:59:25.850Z,17.95
2019-04-25T07:01:56.179Z,17.92
2019-04-25T07:04:27.025Z,17.93
2019-04-25T07:07:09.382Z,17.94
2019-04-25T07:09:29.684Z,18.02
2019-04-25T07:11:59.729Z,18.11
2019-04-25T07:14:29.514Z,18.17
2019-04-25T07:16:59.190Z,18.20
2019-04-25T07:19:28.562Z,18.24
2019-04-25T07:21:57.990Z,18.52
2019-04-25T07:24:27.420Z,19.23
2019-04-25T07:26:58.582Z,20.01
2019-04-25T07:29:45.559Z,20.44
2019-04-25T07:32:17.044Z,20.58
2019-04-25T07:34:48.096Z,20.66
2019-04-25T07:37:26.251Z,20.69
2019-04-25T07:39:55.645Z,20.66
2019-04-25T07:42:25.966Z,20.63
2019-04-25T07:44:55.476Z,20.60
2019-04-25T07:47:26.733Z,20.52
2019-04-25T07:49:55.997Z,20.40
2019-04-25T07:52:26.952Z,20.27
2019-04-25T07:54:56.564Z,20.13
2019-04-25T07:57:26.802Z,20.02
2019-04-25T07:59:57.064Z,19.90
2019-04-25T08:02:27.946Z,19.81
2019-04-25T08:04:57.494Z,19.77
2019-04-25T08:07:28.024Z,19.70
2019-04-25T08:09:57.774Z,19.62
2019-04-25T08:12:28.226Z,19.54
2019-04-25T08:14:59.634Z,19.46
2019-04-25T08:17:47.134Z,19.47
2019-04-25T08:20:19.267Z,19.47
2019-04-25T08:22:56.568Z,19.62
2019-04-25T08:25:23.403Z,19.89
2019-04-25T08:27:53.510Z,20.20
2019-04-25T08:30:24.720Z,20.37
2019-04-25T08:32:56.081Z,20.47
2019-04-25T08:35:25.798Z,20.62
2019-04-25T08:37:55.323Z,20.81
2019-04-25T08:40:25.313Z,21.03
2019-04-25T08:42:54.958Z,21.42
2019-04-25T08:45:24.987Z,21.83
2019-04-25T08:47:56.501Z,22.29
2019-04-25T08:50:38.675Z,22.45
2019-04-25T08:53:11.007Z,22.41
2019-04-25T08:55:45.726Z,22.33
2019-04-25T08:58:31.303Z,22.16
2019-04-25T09:01:15.452Z,21.94
2019-04-25T09:03:53.906Z,21.72
2019-04-25T09:06:24.458Z,21.53
2019-04-25T09:08:54.163Z,21.37
2019-04-25T09:11:24.480Z,21.26
2019-04-25T09:13:54.098Z,21.19
2019-04-25T09:16:24.022Z,21.11
2019-04-25T09:18:53.951Z,21.05
2019-04-25T09:21:23.932Z,21.03
2019-04-25T09:23:53.613Z,21.03
2019-04-25T09:26:24.216Z,21.09
2019-04-25T09:28:53.839Z,21.19
2019-04-25T09:31:23.841Z,21.31
2019-04-25T09:33:55.845Z,21.38
2019-04-25T09:36:25.367Z,21.41
2019-04-25T09:38:56.443Z,21.43
2019-04-25T09:41:25.981Z,21.49
2019-04-25T09:43:57.357Z,21.59
2019-04-25T09:46:28.617Z,21.70
2019-04-25T09:49:04.141Z,21.83
2019-04-25T09:51:36.030Z,21.97
2019-04-25T09:54:08.229Z,22.05
2019-04-25T09:56:55.318Z,22.05
2019-04-25T09:59:28.061Z,22.08
2019-04-25T10:01:56.431Z,22.13
2019-04-25T10:04:26.111Z,22.14
2019-04-25T10:06:55.657Z,22.18
2019-04-25T10:09:25.340Z,22.16
2019-04-25T10:11:54.878Z,22.18
2019-04-25T10:14:38.866Z,22.18
2019-04-25T10:17:08.688Z,22.08
2019-04-25T10:19:39.080Z,22.06
2019-04-25T10:22:08.782Z,22.08
2019-04-25T10:24:38.530Z,22.11
2019-04-25T10:27:07.969Z,22.17
2019-04-25T10:29:44.823Z,22.24
2019-04-25T10:32:09.649Z,22.35
2019-04-25T10:34:39.017Z,22.56
2019-04-25T10:37:08.533Z,22.79
2019-04-25T10:39:39.943Z,23.04
2019-04-25T10:42:09.428Z,23.31
2019-04-25T10:44:39.241Z,23.59
2019-04-25T10:47:09.814Z,23.81
2019-04-25T10:49:39.822Z,23.92
2019-04-25T10:52:10.204Z,23.97
2019-04-25T10:54:39.845Z,24.01
2019-04-25T10:57:09.295Z,24.00
2019-04-25T10:59:38.745Z,23.92
2019-04-25T11:02:09.536Z,23.78
2019-04-25T11:04:41.731Z,23.88
2019-04-25T11:07:11.306Z,24.25
2019-04-25T11:09:43.130Z,24.75
2019-04-25T11:12:14.589Z,25.13
2019-04-25T11:14:44.301Z,25.42
2019-04-25T11:17:15.499Z,25.62
2019-04-25T11:19:45.405Z,25.77
2019-04-25T11:22:15.569Z,25.94
2019-04-25T11:24:45.856Z,26.01
2019-04-25T11:27:15.199Z,25.92
2019-04-25T11:29:45.043Z,25.76
2019-04-25T11:32:19.695Z,25.52
2019-04-25T11:34:47.955Z,25.35
2019-04-25T11:37:18.192Z,25.40
2019-04-25T11:39:58.242Z,25.52
2019-04-25T11:42:28.268Z,25.78
2019-04-25T11:44:57.974Z,25.92
2019-04-25T11:47:27.336Z,25.82
2019-04-25T11:49:56.798Z,25.64
2019-04-25T11:52:28.383Z,25.51
2019-04-25T11:54:57.357Z,25.43
2019-04-25T11:57:26.786Z,25.41
2019-04-25T11:59:56.203Z,25.41
2019-04-25T12:02:26.529Z,25.44
2019-04-25T12:04:55.913Z,25.45
2019-04-25T12:07:25.907Z,25.41
2019-04-25T12:09:55.673Z,25.31
2019-04-25T12:12:25.059Z,25.20
2019-04-25T12:14:55.406Z,25.12
2019-04-25T12:17:25.231Z,25.15
2019-04-25T12:19:55.259Z,25.19
2019-04-25T12:22:25.563Z,25.27
2019-04-25T12:24:55.733Z,25.37
2019-04-25T12:27:25.736Z,25.53
2019-04-25T12:29:55.129Z,25.71
2019-04-25T12:32:24.827Z,25.88
2019-04-25T12:34:54.225Z,25.93
2019-04-25T12:37:25.035Z,25.92
2019-04-25T12:39:54.489Z,25.92
2019-04-25T12:42:24.351Z,26.05
2019-04-25T12:45:04.358Z,26.19
2019-04-25T12:47:41.181Z,26.33
2019-04-25T12:50:11.164Z,26.48
2019-04-25T12:52:40.542Z,26.56
2019-04-25T12:55:13.803Z,26.53
2019-04-25T12:57:43.453Z,26.47
2019-04-25T13:00:15.313Z,26.41
2019-04-25T13:02:44.816Z,26.30
2019-04-25T13:05:14.304Z,26.18
2019-04-25T13:07:43.661Z,26.14
2019-04-25T13:10:15.398Z,26.10
2019-04-25T13:12:44.793Z,26.08
2019-04-25T13:15:14.840Z,26.01
2019-04-25T13:17:44.220Z,25.95
2019-04-25T13:20:13.721Z,25.86
2019-04-25T13:22:43.323Z,25.76
2019-04-25T13:25:14.406Z,25.65
2019-04-25T13:27:48.208Z,25.54
2019-04-25T13:30:25.362Z,25.41
2019-04-25T13:32:59.056Z,25.27
2019-04-25T13:35:33.542Z,25.20
2019-04-25T13:38:02.962Z,25.12
2019-04-25T13:40:32.326Z,25.06
2019-04-25T13:43:02.865Z,25.07
2019-04-25T13:45:33.003Z,25.08
2019-04-25T13:48:04.704Z,25.06
2019-04-25T13:50:34.392Z,25.00
2019-04-25T13:53:03.864Z,24.95
2019-04-25T13:55:33.298Z,24.92
2019-04-25T13:58:04.206Z,24.85
2019-04-25T14:00:34.897Z,24.79
2019-04-25T14:03:04.469Z,24.71
2019-04-25T14:05:35.183Z,24.61
2019-04-25T14:08:04.992Z,24.53
2019-04-25T14:10:34.469Z,24.45
2019-04-25T14:13:05.050Z,24.33
2019-04-25T14:15:37.247Z,24.21
2019-04-25T14:18:11.146Z,24.09
2019-04-25T14:20:42.152Z,23.99
2019-04-25T14:23:14.578Z,23.89
2019-04-25T14:25:43.950Z,23.81
2019-04-25T14:28:14.113Z,23.72
2019-04-25T14:30:43.646Z,23.65
2019-04-25T14:33:13.580Z,23.60
2019-04-25T14:35:43.075Z,23.54
2019-04-25T14:38:13.839Z,23.49
2019-04-25T14:40:43.445Z,23.44
2019-04-25T14:43:12.803Z,23.41
2019-04-25T14:45:44.963Z,23.37
2019-04-25T14:48:13.685Z,23.32
2019-04-25T14:50:43.148Z,23.26
2019-04-25T14:53:12.829Z,23.21
2019-04-25T14:55:56.182Z,23.17
2019-04-25T14:58:28.210Z,23.14
2019-04-25T15:00:57.827Z,23.12
2019-04-25T15:03:27.206Z,23.12
2019-04-25T15:05:56.595Z,23.12
2019-04-25T15:08:26.588Z,23.12
2019-04-25T15:10:56.026Z,23.12
2019-04-25T15:13:25.829Z,23.11
2019-04-25T15:15:55.363Z,23.07
2019-04-25T15:18:25.073Z,23.03
2019-04-25T15:20:54.452Z,23.00
2019-04-25T15:23:24.155Z,22.98
2019-04-25T15:25:53.947Z,22.96
2019-04-25T15:28:24.424Z,22.93
2019-04-25T15:30:54.040Z,22.88
2019-04-25T15:33:24.274Z,22.84
2019-04-25T15:35:58.033Z,22.83
2019-04-25T15:38:43.786Z,22.81
2019-04-25T15:41:14.948Z,22.73
2019-04-25T15:43:51.386Z,22.68
2019-04-25T15:46:22.672Z,22.64
2019-04-25T15:48:52.044Z,22.66
2019-04-25T15:51:21.914Z,22.62
2019-04-25T15:53:51.277Z,22.60
2019-04-25T15:56:20.733Z,22.57
2019-04-25T15:58:50.106Z,22.48
2019-04-25T16:01:19.834Z,22.39
2019-04-25T16:03:49.207Z,22.30
2019-04-25T16:06:18.578Z,22.19
2019-04-25T16:08:48.219Z,22.09
2019-04-25T16:11:17.658Z,22.00
2019-04-25T16:13:47.037Z,21.90
2019-04-25T16:16:16.442Z,21.78
2019-04-25T16:18:45.934Z,21.71
2019-04-25T16:21:15.575Z,21.63
2019-04-25T16:23:45.976Z,21.54
2019-04-25T16:26:15.428Z,21.46
2019-04-25T16:28:44.802Z,21.40
2019-04-25T16:31:16.251Z,21.36
2019-04-25T16:33:45.723Z,21.31
2019-04-25T16:36:15.381Z,21.23
2019-04-25T16:38:44.784Z,21.13
2019-04-25T16:41:14.139Z,21.04
2019-04-25T16:43:45.160Z,20.93
2019-04-25T16:46:15.327Z,20.84
2019-04-25T16:48:44.778Z,20.77
2019-04-25T16:51:14.820Z,20.70
2019-04-25T16:53:44.193Z,20.63
2019-04-25T16:56:13.708Z,20.55
2019-04-25T16:58:43.257Z,20.45
2019-04-25T17:01:14.320Z,20.32
2019-04-25T17:03:44.467Z,20.15
2019-04-25T17:06:14.130Z,20.04
2019-04-25T17:08:43.977Z,19.91
2019-04-25T17:20:30.740Z,19.31
2019-04-25T17:23:00.211Z,19.07
2019-04-25T17:25:30.118Z,18.96
2019-04-25T17:28:00.664Z,18.84
2019-04-25T17:30:32.618Z,18.75
2019-04-25T17:33:09.852Z,18.67
2019-04-25T17:35:40.957Z,18.58
2019-04-25T17:38:19.466Z,18.48
2019-04-25T17:40:52.813Z,18.37
2019-04-25T17:43:22.576Z,18.27
2019-04-25T17:45:52.068Z,18.19
2019-04-25T17:48:21.838Z,18.15
2019-04-25T17:50:51.347Z,18.08
2019-04-25T17:53:24.049Z,17.97
2019-04-25T17:55:53.606Z,17.87
2019-04-25T17:58:23.743Z,17.78
2019-04-25T18:00:53.615Z,17.68
2019-04-25T18:03:24.857Z,17.61
2019-04-25T18:05:54.385Z,17.56
2019-04-25T18:08:24.017Z,17.51
2019-04-25T18:10:53.483Z,17.46
2019-04-25T18:13:24.472Z,17.41
2019-04-25T18:15:55.679Z,17.34
2019-04-25T18:18:46.679Z,17.28
2019-04-25T18:21:16.188Z,17.17
2019-04-25T18:24:02.406Z,17.14
2019-04-25T18:26:36.727Z,17.04
2019-04-25T18:29:08.241Z,16.99
2019-04-25T18:31:37.743Z,16.93
2019-04-25T18:34:08.757Z,16.86
2019-04-25T18:36:40.992Z,16.80
2019-04-25T18:39:14.982Z,16.73
2019-04-25T18:41:58.138Z,16.69
2019-04-25T18:44:27.669Z,16.62
2019-04-25T18:46:57.049Z,16.60
2019-04-25T18:49:26.617Z,16.58
2019-04-25T18:51:58.273Z,16.60
2019-04-25T18:54:29.429Z,16.58
2019-04-25T18:57:00.449Z,16.58
2019-04-25T18:59:41.579Z,16.56
2019-04-25T19:02:25.023Z,16.55
2019-04-25T19:05:12.054Z,16.55
2019-04-25T19:07:41.519Z,16.52
2019-04-25T19:10:12.090Z,16.55
2019-04-25T19:12:41.596Z,16.56
2019-04-25T19:15:11.231Z,16.57
2019-04-25T19:17:41.365Z,16.55
2019-04-25T19:20:11.165Z,16.53
2019-04-25T19:22:41.493Z,16.48
2019-04-25T19:25:11.431Z,16.45
2019-04-25T19:27:42.051Z,16.40
2019-04-25T19:30:13.722Z,16.37
2019-04-25T19:32:43.168Z,16.30
2019-04-25T19:35:12.807Z,16.27
2019-04-25T19:37:43.828Z,16.23
2019-04-25T19:40:21.883Z,16.20
2019-04-25T19:42:55.879Z,16.14
2019-04-25T19:45:25.442Z,16.08
2019-04-25T19:47:56.626Z,16.04
2019-04-25T19:50:26.207Z,16.00
2019-04-25T19:52:55.645Z,15.96
2019-04-25T19:55:25.075Z,15.93
2019-04-25T19:57:57.362Z,15.89
2019-04-25T20:00:26.939Z,15.88
2019-04-25T20:03:09.958Z,15.86
2019-04-25T20:05:50.489Z,15.83
2019-04-25T20:08:23.353Z,15.82
2019-04-25T20:10:54.467Z,15.83
2019-04-25T20:13:23.949Z,15.85
2019-04-25T20:15:53.874Z,15.88
2019-04-25T20:18:23.336Z,15.88
2019-04-25T20:20:52.702Z,15.88
2019-04-25T20:23:22.228Z,15.89
2019-04-25T20:25:52.826Z,15.87
2019-04-25T20:28:23.052Z,15.88
2019-04-25T20:30:52.684Z,15.88
2019-04-25T20:33:27.131Z,15.88
2019-04-25T20:35:56.566Z,15.85
2019-04-25T20:38:26.336Z,15.84
2019-04-25T20:40:56.048Z,15.84
2019-04-25T20:43:25.507Z,15.84
2019-04-25T20:45:55.112Z,15.87
2019-04-25T20:48:24.472Z,15.87
2019-04-25T20:50:54.568Z,15.88
2019-04-25T20:53:24.244Z,15.85
2019-04-25T20:55:53.585Z,15.89
2019-04-25T20:58:22.981Z,15.88
2019-04-25T21:00:57.956Z,15.90
2019-04-25T21:03:27.457Z,15.89
2019-04-25T21:05:58.429Z,15.89
2019-04-25T21:08:27.823Z,15.87
2019-04-25T21:10:57.899Z,15.89
2019-04-25T21:13:31.313Z,15.88
2019-04-25T21:16:04.995Z,15.87
2019-04-25T21:18:44.878Z,15.85
2019-04-25T21:21:14.258Z,15.82
2019-04-25T21:23:43.698Z,15.79
2019-04-25T21:26:13.120Z,15.76
2019-04-25T21:28:42.591Z,15.74
2019-04-25T21:31:12.120Z,15.70
2019-04-25T21:33:41.541Z,15.71
2019-04-25T21:36:10.903Z,15.70
2019-04-25T21:38:40.555Z,15.68
2019-04-25T21:41:11.592Z,15.63
2019-04-25T21:43:48.378Z,15.60
2019-04-25T21:46:18.160Z,15.55
2019-04-25T21:48:47.790Z,15.55
2019-04-25T21:51:30.703Z,15.55
2019-04-25T21:54:02.528Z,15.51
2019-04-25T21:56:33.394Z,15.48
2019-04-25T21:59:04.004Z,15.49
2019-04-25T22:01:35.229Z,15.49
2019-04-25T22:04:05.300Z,15.50
2019-04-25T22:06:35.487Z,15.50
2019-04-25T22:09:09.900Z,15.53
2019-04-25T22:11:39.418Z,15.52
2019-04-25T22:14:09.315Z,15.53
2019-04-25T22:16:39.352Z,15.52
2019-04-25T22:19:10.016Z,15.49
2019-04-25T22:21:39.672Z,15.47
2019-04-25T22:24:13.767Z,15.47
2019-04-25T22:26:40.163Z,15.44
2019-04-25T22:29:10.038Z,15.39
2019-04-25T22:31:56.921Z,15.35
2019-04-25T22:34:34.455Z,15.27
2019-04-25T22:37:04.168Z,15.24
2019-04-25T22:39:33.564Z,15.25
2019-04-25T22:42:03.893Z,15.26
2019-04-25T22:44:33.893Z,15.25
2019-04-25T22:47:04.289Z,15.25
2019-04-25T22:49:33.664Z,15.21
2019-04-25T22:52:03.262Z,15.16
2019-04-25T22:54:32.661Z,15.14
2019-04-25T22:57:02.636Z,15.10
2019-04-25T22:59:32.690Z,15.07
2019-04-25T23:02:09.583Z,15.05
2019-04-25T23:05:04.760Z,15.00
2019-04-25T23:07:25.634Z,14.96
2019-04-25T23:09:55.663Z,14.96
2019-04-25T23:12:27.642Z,14.96
2019-04-25T23:14:56.762Z,14.97
2019-04-25T23:17:33.103Z,14.97
2019-04-25T23:20:04.205Z,14.97
2019-04-25T23:22:33.874Z,14.96
2019-04-25T23:25:07.850Z,14.95
2019-04-25T23:27:51.066Z,14.92
2019-04-25T23:30:22.612Z,14.89
2019-04-25T23:32:52.008Z,14.86
2019-04-25T23:35:29.976Z,14.86
2019-04-25T23:37:52.520Z,14.83
2019-04-25T23:40:21.957Z,14.80
2019-04-25T23:42:51.335Z,14.79
2019-04-25T23:45:20.702Z,14.77
2019-04-25T23:47:50.494Z,14.77
2019-04-25T23:50:20.172Z,14.76
2019-04-25T23:52:49.572Z,14.76
2019-04-25T23:55:19.512Z,14.75
2019-04-25T23:57:48.876Z,14.77
